createdAt,value
2023-03-12T00:02:19.018Z,7.11
2023-03-12T00:05:05.332Z,7.11
2023-03-12T00:07:51.990Z,7.09
2023-03-12T00:10:39.535Z,7.10
2023-03-12T00:13:25.604Z,7.10
2023-03-12T00:16:14.098Z,6.80
2023-03-12T00:19:01.407Z,7.11
2023-03-12T00:21:47.568Z,7.10
2023-03-12T00:24:33.604Z,7.12
2023-03-12T00:27:20.620Z,7.04
2023-03-12T00:30:07.721Z,7.09
2023-03-12T00:32:53.405Z,7.16
2023-03-12T00:35:39.293Z,7.13
2023-03-12T00:38:25.217Z,7.14
2023-03-12T00:41:11.144Z,7.12
2023-03-12T00:43:57.727Z,7.20
2023-03-12T00:46:43.887Z,7.17
2023-03-12T00:49:29.535Z,7.16
2023-03-12T00:52:15.511Z,7.19
2023-03-12T00:55:01.267Z,7.22
2023-03-12T00:57:47.126Z,7.21
2023-03-12T01:00:33.083Z,7.11
2023-03-12T01:03:19.267Z,7.22
2023-03-12T01:06:06.056Z,7.25
2023-03-12T01:08:52.514Z,7.24
2023-03-12T01:11:39.028Z,7.11
2023-03-12T01:14:25.555Z,7.25
2023-03-12T01:17:11.707Z,7.19
2023-03-12T01:19:57.557Z,7.16
2023-03-12T01:22:44.246Z,7.13
2023-03-12T01:25:30.496Z,7.24
2023-03-12T01:28:16.227Z,7.11
2023-03-12T01:31:13.412Z,7.22
2023-03-12T01:33:59.436Z,7.23
2023-03-12T01:36:47.789Z,7.21
2023-03-12T01:39:33.521Z,7.22
2023-03-12T01:42:19.393Z,7.21
2023-03-12T01:45:06.139Z,7.24
2023-03-12T01:47:53.102Z,7.25
2023-03-12T01:50:39.062Z,7.19
2023-03-12T01:53:25.443Z,7.22
2023-03-12T01:56:12.450Z,7.12
2023-03-12T01:59:15.560Z,7.19
2023-03-12T02:02:06.702Z,7.20
2023-03-12T02:05:04.644Z,7.12
2023-03-12T02:07:51.580Z,7.23
2023-03-12T02:10:37.843Z,7.06
2023-03-12T02:13:23.934Z,7.20
2023-03-12T02:16:10.248Z,7.21
2023-03-12T02:18:57.392Z,7.24
2023-03-12T02:21:43.612Z,7.11
2023-03-12T02:24:40.057Z,7.28
2023-03-12T02:27:27.526Z,7.21
2023-03-12T02:30:18.654Z,7.26
2023-03-12T02:33:07.519Z,7.24
2023-03-12T02:35:54.477Z,7.27
2023-03-12T02:38:52.023Z,7.22
2023-03-12T02:41:54.621Z,7.17
2023-03-12T02:44:43.765Z,7.15
2023-03-12T02:47:33.090Z,7.17
2023-03-12T02:50:19.488Z,7.05
2023-03-12T02:53:05.297Z,7.20
2023-03-12T02:55:52.040Z,7.27
2023-03-12T02:58:38.038Z,7.18
2023-03-12T03:01:23.970Z,7.25
2023-03-12T03:04:11.794Z,7.14
2023-03-12T03:06:58.040Z,7.24
2023-03-12T03:09:44.461Z,7.21
2023-03-12T03:12:31.344Z,7.25
2023-03-12T03:15:18.665Z,7.27
2023-03-12T03:18:05.238Z,7.14
2023-03-12T03:20:59.722Z,7.20
2023-03-12T03:23:47.876Z,7.19
2023-03-12T03:26:34.218Z,7.23
2023-03-12T03:29:20.756Z,7.25
2023-03-12T03:32:07.371Z,7.24
2023-03-12T03:34:53.173Z,7.23
2023-03-12T03:37:39.710Z,7.19
2023-03-12T03:40:25.951Z,7.26
2023-03-12T03:43:11.683Z,7.15
2023-03-12T03:46:03.059Z,7.14
2023-03-12T03:48:53.008Z,7.16
2023-03-12T03:51:42.657Z,7.16
2023-03-12T03:54:32.091Z,7.16
2023-03-12T03:57:18.926Z,7.17
2023-03-12T04:00:09.583Z,7.15
2023-03-12T04:02:59.407Z,7.12
2023-03-12T04:05:45.597Z,7.14
2023-03-12T04:08:35.462Z,7.11
2023-03-12T04:11:22.703Z,7.06
2023-03-12T04:14:08.630Z,7.11
2023-03-12T04:16:57.043Z,7.08
2023-03-12T04:19:42.843Z,7.05
2023-03-12T04:22:28.832Z,6.89
2023-03-12T04:25:14.762Z,6.99
2023-03-12T04:28:01.353Z,6.86
2023-03-12T04:30:59.616Z,6.92
2023-03-12T04:33:46.337Z,6.99
2023-03-12T04:36:32.643Z,6.99
2023-03-12T04:39:20.400Z,7.05
2023-03-12T04:42:09.868Z,6.90
2023-03-12T04:44:56.276Z,6.98
2023-03-12T04:47:42.150Z,6.98
2023-03-12T04:50:29.214Z,7.00
2023-03-12T04:53:16.672Z,6.87
2023-03-12T04:56:02.353Z,6.85
2023-03-12T04:58:49.369Z,6.93
2023-03-12T05:01:36.800Z,6.98
2023-03-12T05:04:27.626Z,6.91
2023-03-12T05:07:15.220Z,6.94
2023-03-12T05:10:01.336Z,6.80
2023-03-12T05:12:47.467Z,6.97
2023-03-12T05:15:37.047Z,6.92
2023-03-12T05:18:23.392Z,6.81
2023-03-12T05:21:12.515Z,6.91
2023-03-12T05:23:59.123Z,6.77
2023-03-12T05:26:47.238Z,6.86
2023-03-12T05:29:36.505Z,6.77
2023-03-12T05:32:23.464Z,6.84
2023-03-12T05:35:09.946Z,6.86
2023-03-12T05:37:56.073Z,6.90
2023-03-12T05:40:41.826Z,6.71
2023-03-12T05:43:27.793Z,6.85
2023-03-12T05:46:14.865Z,6.84
2023-03-12T05:49:00.853Z,6.79
2023-03-12T05:51:49.146Z,6.78
2023-03-12T05:54:35.598Z,6.75
2023-03-12T05:57:24.072Z,6.80
2023-03-12T06:00:12.664Z,6.71
2023-03-12T06:03:01.747Z,6.83
2023-03-12T06:05:48.383Z,6.69
2023-03-12T06:08:34.463Z,6.87
2023-03-12T06:11:20.323Z,6.72
2023-03-12T06:14:07.087Z,6.77
2023-03-12T06:16:54.919Z,6.89
2023-03-12T06:19:40.601Z,6.91
2023-03-12T06:22:26.881Z,6.92
2023-03-12T06:25:12.675Z,6.91
2023-03-12T06:28:00.000Z,7.05
2023-03-12T06:30:45.727Z,7.00
2023-03-12T06:33:32.047Z,7.05
2023-03-12T06:36:18.159Z,7.07
2023-03-12T06:39:06.507Z,7.16
2023-03-12T06:41:52.173Z,7.16
2023-03-12T06:44:37.765Z,7.02
2023-03-12T06:47:23.550Z,7.12
2023-03-12T06:50:09.976Z,7.11
2023-03-12T06:52:56.105Z,7.21
2023-03-12T06:55:43.659Z,6.71
2023-03-12T06:58:29.732Z,7.14
2023-03-12T07:01:15.540Z,7.06
2023-03-12T07:04:01.543Z,7.27
2023-03-12T07:06:51.419Z,7.33
2023-03-12T07:09:37.566Z,7.21
2023-03-12T07:12:23.855Z,7.24
2023-03-12T07:15:10.178Z,7.28
2023-03-12T07:17:57.145Z,7.33
2023-03-12T07:20:43.875Z,7.24
2023-03-12T07:23:29.894Z,7.31
2023-03-12T07:26:15.974Z,7.51
2023-03-12T07:29:03.116Z,7.41
2023-03-12T07:31:48.905Z,7.54
2023-03-12T07:34:34.972Z,7.39
2023-03-12T07:37:21.311Z,7.61
2023-03-12T07:40:08.186Z,7.42
2023-03-12T07:42:54.255Z,7.68
2023-03-12T07:45:40.407Z,7.63
2023-03-12T07:48:26.336Z,7.67
2023-03-12T07:51:12.225Z,7.72
2023-03-12T07:53:58.034Z,7.75
2023-03-12T07:56:43.955Z,7.65
2023-03-12T07:59:29.919Z,7.72
2023-03-12T08:02:16.109Z,7.76
2023-03-12T08:05:02.392Z,7.72
2023-03-12T08:07:48.164Z,7.82
2023-03-12T08:10:33.987Z,7.76
2023-03-12T08:13:20.054Z,7.90
2023-03-12T08:16:08.946Z,7.88
2023-03-12T08:18:55.479Z,7.91
2023-03-12T08:21:41.796Z,8.04
2023-03-12T08:24:27.532Z,7.98
2023-03-12T08:27:14.418Z,7.92
2023-03-12T08:30:00.341Z,7.95
2023-03-12T08:32:46.537Z,7.99
2023-03-12T08:35:32.561Z,8.09
2023-03-12T08:38:18.370Z,8.15
2023-03-12T08:41:04.349Z,8.26
2023-03-12T08:43:50.209Z,8.31
2023-03-12T08:46:36.138Z,8.16
2023-03-12T08:49:22.664Z,8.34
2023-03-12T08:52:08.995Z,8.37
2023-03-12T08:54:55.054Z,8.52
2023-03-12T08:57:41.118Z,8.61
2023-03-12T09:00:27.100Z,8.71
2023-03-12T09:03:14.937Z,8.71
2023-03-12T09:06:17.009Z,8.71
2023-03-12T09:09:06.436Z,8.78
2023-03-12T09:11:52.225Z,8.88
2023-03-12T09:17:44.205Z,9.06
2023-03-12T09:20:30.248Z,9.20
2023-03-12T09:23:16.137Z,9.15
2023-03-12T09:26:01.954Z,9.35
2023-03-12T09:28:47.874Z,9.31
2023-03-12T09:31:36.118Z,9.42
2023-03-12T09:34:22.534Z,9.50
2023-03-12T09:37:08.519Z,9.56
2023-03-12T09:39:55.779Z,9.59
2023-03-12T09:42:47.975Z,9.70
2023-03-12T09:45:42.791Z,9.73
2023-03-12T09:48:36.231Z,9.79
2023-03-12T09:51:44.842Z,9.81
2023-03-12T09:54:42.695Z,9.93
2023-03-12T09:57:30.056Z,9.84
2023-03-12T10:00:22.518Z,9.94
2023-03-12T10:03:23.887Z,9.98
2023-03-12T10:06:21.494Z,9.99
2023-03-12T10:09:29.969Z,10.07
2023-03-12T10:12:30.087Z,10.15
2023-03-12T10:15:28.366Z,10.24
2023-03-12T10:18:35.989Z,10.15
2023-03-12T10:21:31.397Z,10.31
2023-03-12T10:24:28.953Z,10.33
2023-03-12T10:27:17.731Z,10.29
2023-03-12T10:30:14.495Z,10.35
2023-03-12T10:33:04.466Z,10.35
2023-03-12T10:35:52.060Z,10.14
2023-03-12T10:38:38.082Z,10.35
2023-03-12T10:41:26.656Z,10.36
2023-03-12T10:44:21.776Z,10.37
2023-03-12T10:47:17.925Z,10.28
2023-03-12T10:50:26.759Z,10.36
2023-03-12T10:53:28.567Z,10.52
2023-03-12T10:56:17.950Z,10.35
2023-03-12T10:59:21.177Z,10.49
2023-03-12T11:02:30.309Z,10.37
2023-03-12T11:05:49.628Z,10.41
2023-03-12T11:08:36.900Z,10.49
2023-03-12T11:11:35.084Z,10.44
2023-03-12T11:14:29.417Z,10.41
2023-03-12T11:17:27.016Z,10.48
2023-03-12T11:20:25.342Z,10.60
2023-03-12T11:23:17.035Z,10.61
2023-03-12T11:26:25.578Z,10.69
2023-03-12T11:29:14.604Z,10.82
2023-03-12T11:32:11.030Z,10.84
2023-03-12T11:34:57.630Z,10.84
2023-03-12T11:37:52.776Z,10.63
2023-03-12T11:40:57.177Z,10.94
2023-03-12T11:44:01.911Z,10.92
2023-03-12T11:47:02.920Z,10.96
2023-03-12T11:50:08.768Z,10.86
2023-03-12T11:53:17.537Z,10.93
2023-03-12T11:56:39.692Z,10.89
2023-03-12T11:59:41.821Z,10.98
2023-03-12T12:02:55.727Z,10.97
2023-03-12T12:05:51.090Z,10.89
2023-03-12T12:08:55.224Z,11.07
2023-03-12T12:11:56.786Z,11.11
2023-03-12T12:15:20.693Z,11.03
2023-03-12T12:18:40.662Z,11.05
2023-03-12T12:21:55.466Z,10.81
2023-03-12T12:25:18.202Z,11.02
2023-03-12T12:28:23.058Z,10.94
2023-03-12T12:31:19.045Z,10.82
2023-03-12T12:34:30.134Z,10.95
2023-03-12T12:37:44.823Z,10.94
2023-03-12T12:40:37.508Z,10.96
2023-03-12T12:43:33.341Z,10.80
2023-03-12T12:46:22.498Z,11.00
2023-03-12T12:49:23.892Z,11.08
2023-03-12T12:52:13.718Z,11.09
2023-03-12T12:55:10.708Z,11.14
2023-03-12T12:58:01.484Z,11.02
2023-03-12T13:00:55.043Z,10.87
2023-03-12T13:03:41.074Z,11.14
2023-03-12T13:07:08.532Z,11.17
2023-03-12T13:09:57.173Z,11.35
2023-03-12T13:12:49.938Z,11.57
2023-03-12T13:15:40.162Z,11.42
2023-03-12T13:18:28.448Z,11.74
2023-03-12T13:21:19.890Z,11.68
2023-03-12T13:24:17.120Z,11.77
2023-03-12T13:27:28.721Z,11.93
2023-03-12T13:30:33.058Z,11.87
2023-03-12T13:33:21.805Z,12.05
2023-03-12T13:36:16.725Z,12.07
2023-03-12T13:39:08.472Z,12.22
2023-03-12T13:41:59.022Z,12.25
2023-03-12T13:44:46.612Z,12.37
2023-03-12T13:47:39.047Z,12.42
2023-03-12T13:50:25.505Z,12.49
2023-03-12T13:53:17.136Z,12.51
2023-03-12T13:56:10.771Z,12.60
2023-03-12T13:59:00.519Z,13.13
2023-03-12T14:01:51.399Z,13.58
2023-03-12T14:04:39.123Z,14.04
2023-03-12T14:07:40.250Z,14.55
2023-03-12T14:10:32.327Z,15.15
2023-03-12T14:13:25.763Z,15.69
2023-03-12T14:16:35.899Z,16.03
2023-03-12T14:19:27.436Z,16.48
2023-03-12T14:22:13.748Z,16.86
2023-03-12T14:25:04.437Z,17.13
2023-03-12T14:27:50.372Z,17.67
2023-03-12T14:30:54.543Z,18.04
2023-03-12T14:33:52.530Z,18.51
2023-03-12T14:36:41.761Z,18.68
2023-03-12T14:39:46.178Z,18.87
2023-03-12T14:42:34.589Z,19.04
2023-03-12T14:45:23.557Z,18.79
2023-03-12T14:48:12.014Z,18.87
2023-03-12T14:50:59.921Z,18.80
2023-03-12T14:53:45.984Z,18.83
2023-03-12T14:56:35.890Z,18.87
2023-03-12T14:59:25.590Z,18.97
2023-03-12T15:02:14.528Z,18.98
2023-03-12T15:05:01.900Z,19.03
2023-03-12T15:07:49.006Z,19.06
2023-03-12T15:10:35.390Z,19.06
2023-03-12T15:13:23.229Z,19.09
2023-03-12T15:16:09.301Z,19.05
2023-03-12T15:18:55.258Z,18.95
2023-03-12T15:21:41.532Z,18.67
2023-03-12T15:24:29.128Z,18.34
2023-03-12T15:27:28.801Z,18.14
2023-03-12T15:30:26.038Z,17.86
2023-03-12T15:33:24.583Z,17.29
2023-03-12T15:36:19.960Z,17.53
2023-03-12T15:39:32.774Z,17.38
2023-03-12T15:42:23.558Z,17.23
2023-03-12T15:45:21.371Z,17.09
2023-03-12T15:48:30.050Z,16.96
2023-03-12T15:51:36.664Z,16.82
2023-03-12T15:54:27.365Z,16.72
2023-03-12T15:57:26.067Z,16.35
2023-03-12T16:00:14.813Z,16.15
2023-03-12T16:03:06.221Z,15.78
2023-03-12T16:05:52.012Z,15.50
2023-03-12T16:08:45.036Z,15.12
2023-03-12T16:11:33.435Z,14.87
2023-03-12T16:14:24.588Z,14.55
2023-03-12T16:17:14.070Z,14.29
2023-03-12T16:20:00.006Z,13.99
2023-03-12T16:22:45.824Z,13.80
2023-03-12T16:25:31.792Z,13.54
2023-03-12T16:28:19.408Z,13.38
2023-03-12T16:31:11.470Z,13.11
2023-03-12T16:33:58.194Z,12.91
2023-03-12T16:36:44.331Z,12.77
2023-03-12T16:39:33.281Z,12.55
2023-03-12T16:42:20.046Z,12.49
2023-03-12T16:45:09.155Z,12.30
2023-03-12T16:48:00.178Z,12.14
2023-03-12T16:50:53.031Z,11.87
2023-03-12T16:53:38.934Z,11.77
2023-03-12T16:56:26.182Z,11.69
2023-03-12T16:59:23.833Z,11.46
2023-03-12T17:02:15.943Z,11.39
2023-03-12T17:05:02.286Z,11.31
2023-03-12T17:07:48.246Z,11.29
2023-03-12T17:10:34.198Z,11.05
2023-03-12T17:13:22.932Z,11.06
2023-03-12T17:16:11.543Z,10.96
2023-03-12T17:18:57.440Z,10.91
2023-03-12T17:21:44.303Z,10.84
2023-03-12T17:24:30.403Z,10.83
2023-03-12T17:27:16.594Z,10.75
2023-03-12T17:30:02.936Z,10.74
2023-03-12T17:32:50.257Z,10.60
2023-03-12T17:35:37.090Z,10.61
2023-03-12T17:38:24.760Z,10.44
2023-03-12T17:41:25.564Z,10.45
2023-03-12T17:44:14.867Z,10.37
2023-03-12T17:47:02.224Z,10.04
2023-03-12T17:49:48.527Z,10.17
2023-03-12T17:52:34.395Z,10.12
2023-03-12T17:55:20.230Z,9.98
2023-03-12T17:58:06.442Z,9.99
2023-03-12T18:00:52.380Z,9.85
2023-03-12T18:03:38.473Z,9.96
2023-03-12T18:06:25.045Z,9.90
2023-03-12T18:09:11.018Z,9.90
2023-03-12T18:11:56.952Z,9.86
2023-03-12T18:14:42.767Z,9.79
2023-03-12T18:17:28.691Z,9.72
2023-03-12T18:20:19.562Z,9.73
2023-03-12T18:23:11.763Z,9.68
2023-03-12T18:25:57.604Z,9.58
2023-03-12T18:28:43.527Z,9.60
2023-03-12T18:31:29.542Z,9.55
2023-03-12T18:34:16.106Z,9.54
2023-03-12T18:37:02.098Z,9.50
2023-03-12T18:39:48.116Z,9.34
2023-03-12T18:42:34.249Z,9.39
2023-03-12T18:45:20.133Z,9.37
2023-03-12T18:48:05.996Z,9.35
2023-03-12T18:50:51.906Z,9.32
2023-03-12T18:53:37.767Z,9.17
2023-03-12T18:56:23.620Z,9.19
2023-03-12T18:59:14.608Z,9.16
2023-03-12T19:02:00.572Z,9.07
2023-03-12T19:04:46.369Z,9.01
2023-03-12T19:07:32.546Z,8.93
2023-03-12T19:10:18.984Z,8.82
2023-03-12T19:13:04.968Z,8.81
2023-03-12T19:15:58.086Z,8.80
2023-03-12T19:18:43.902Z,8.70
2023-03-12T19:21:29.701Z,8.71
2023-03-12T19:24:15.619Z,8.70
2023-03-12T19:27:01.399Z,8.63
2023-03-12T19:29:47.224Z,8.38
2023-03-12T19:32:42.554Z,8.34
2023-03-12T19:35:29.256Z,8.47
2023-03-12T19:38:15.115Z,8.42
2023-03-12T19:41:00.959Z,8.34
2023-03-12T19:43:46.754Z,8.33
2023-03-12T19:46:32.862Z,8.36
2023-03-12T19:49:18.858Z,8.35
2023-03-12T19:52:04.650Z,8.20
2023-03-12T19:55:03.470Z,8.18
2023-03-12T19:57:50.515Z,8.24
2023-03-12T20:00:36.707Z,8.21
2023-03-12T20:03:23.257Z,8.17
2023-03-12T20:06:10.309Z,8.18
2023-03-12T20:08:56.329Z,8.10
2023-03-12T20:11:42.069Z,8.13
2023-03-12T20:14:28.109Z,8.09
2023-03-12T20:17:15.003Z,8.11
2023-03-12T20:20:01.495Z,8.09
2023-03-12T20:22:49.513Z,8.06
2023-03-12T20:25:39.550Z,8.03
2023-03-12T20:28:25.536Z,8.04
2023-03-12T20:31:14.046Z,7.88
2023-03-12T20:34:00.215Z,7.81
2023-03-12T20:36:46.214Z,7.98
2023-03-12T20:39:31.846Z,7.91
2023-03-12T20:42:17.667Z,7.91
2023-03-12T20:45:03.836Z,7.90
2023-03-12T20:47:50.181Z,7.87
2023-03-12T20:50:37.885Z,7.87
2023-03-12T20:53:23.664Z,7.82
2023-03-12T20:56:10.610Z,7.80
2023-03-12T20:58:57.275Z,7.70
2023-03-12T21:01:43.467Z,7.59
2023-03-12T21:04:29.712Z,7.65
2023-03-12T21:07:15.540Z,7.58
2023-03-12T21:10:01.251Z,7.57
2023-03-12T21:12:47.143Z,7.52
2023-03-12T21:15:33.081Z,7.50
2023-03-12T21:18:19.270Z,7.48
2023-03-12T21:21:06.778Z,7.48
2023-03-12T21:23:53.289Z,7.48
2023-03-12T21:26:39.016Z,7.32
2023-03-12T21:29:24.882Z,7.39
2023-03-12T21:32:10.740Z,7.34
2023-03-12T21:34:56.693Z,7.32
2023-03-12T21:37:43.608Z,7.27
2023-03-12T21:40:29.382Z,7.15
2023-03-12T21:43:15.182Z,7.13
2023-03-12T21:46:12.165Z,7.00
2023-03-12T21:49:01.481Z,7.10
2023-03-12T21:51:47.303Z,6.92
2023-03-12T21:54:34.288Z,7.04
2023-03-12T21:57:20.424Z,6.97
2023-03-12T22:00:11.782Z,6.84
2023-03-12T22:02:57.687Z,6.89
2023-03-12T22:05:43.424Z,6.75
2023-03-12T22:08:29.399Z,6.80
2023-03-12T22:11:15.940Z,6.61
2023-03-12T22:14:02.008Z,6.71
2023-03-12T22:16:48.050Z,6.69
2023-03-12T22:19:33.853Z,6.65
2023-03-12T22:22:19.733Z,6.50
2023-03-12T22:25:05.954Z,6.63
2023-03-12T22:27:51.989Z,6.53
2023-03-12T22:30:37.900Z,6.44
2023-03-12T22:33:23.691Z,6.48
2023-03-12T22:36:12.652Z,6.48
2023-03-12T22:38:58.488Z,6.40
2023-03-12T22:41:44.352Z,6.38
2023-03-12T22:44:30.234Z,6.34
2023-03-12T22:47:15.922Z,6.19
2023-03-12T22:50:01.922Z,6.24
2023-03-12T22:52:47.715Z,6.22
2023-03-12T22:55:33.999Z,6.16
2023-03-12T22:58:20.072Z,6.12
2023-03-12T23:01:14.518Z,6.11
2023-03-12T23:04:00.645Z,6.09
2023-03-12T23:06:46.835Z,5.99
2023-03-12T23:09:32.606Z,5.98
2023-03-12T23:12:18.504Z,5.95
2023-03-12T23:15:04.748Z,5.87
2023-03-12T23:17:50.867Z,5.87
2023-03-12T23:20:36.892Z,5.82
2023-03-12T23:23:22.695Z,5.82
2023-03-12T23:26:08.828Z,5.75
2023-03-12T23:28:56.113Z,5.70
2023-03-12T23:31:41.938Z,5.70
2023-03-12T23:34:27.811Z,5.70
2023-03-12T23:37:14.346Z,5.61
2023-03-12T23:40:00.252Z,5.62
2023-03-12T23:42:46.067Z,5.49
2023-03-12T23:45:31.863Z,5.57
2023-03-12T23:48:17.950Z,5.54
2023-03-12T23:51:15.968Z,5.53
2023-03-12T23:54:05.389Z,5.50
2023-03-12T23:56:51.394Z,5.46
2023-03-12T23:59:37.493Z,5.43
